createdAt,value
2018-09-20T00:02:41.204Z,85.14
2018-09-20T00:07:36.025Z,84.01
2018-09-20T00:12:30.801Z,83.24
2018-09-20T00:17:25.576Z,82.95
2018-09-20T00:22:20.445Z,84.96
2018-09-20T00:27:15.264Z,86.00
2018-09-20T00:32:10.045Z,85.43
2018-09-20T00:37:04.883Z,84.02
2018-09-20T00:41:59.621Z,83.91
2018-09-20T00:46:54.437Z,83.75
2018-09-20T00:51:49.249Z,84.25
2018-09-20T00:56:44.128Z,84.91
2018-09-20T01:01:38.953Z,84.91
2018-09-20T01:06:33.785Z,85.32
2018-09-20T01:11:28.652Z,84.22
2018-09-20T01:16:23.421Z,85.31
2018-09-20T01:21:18.298Z,86.05
2018-09-20T01:26:13.062Z,86.29
2018-09-20T01:31:07.900Z,85.79
2018-09-20T01:36:02.717Z,85.22
2018-09-20T01:40:57.553Z,85.25
2018-09-20T01:45:52.350Z,85.84
2018-09-20T01:50:47.156Z,86.21
2018-09-20T01:55:42.001Z,86.21
2018-09-20T02:00:36.799Z,86.75
2018-09-20T02:05:31.592Z,85.39
2018-09-20T02:10:26.403Z,85.04
2018-09-20T02:15:21.289Z,86.88
2018-09-20T02:20:16.053Z,87.54
2018-09-20T02:25:10.898Z,87.68
2018-09-20T02:30:05.796Z,87.90
2018-09-20T02:35:00.624Z,86.13
2018-09-20T02:39:55.413Z,87.45
2018-09-20T02:44:50.170Z,87.15
2018-09-20T02:49:45.081Z,86.94
2018-09-20T02:54:39.865Z,88.05
2018-09-20T02:59:34.645Z,89.55
2018-09-20T03:04:29.554Z,88.61
2018-09-20T03:09:24.341Z,88.27
2018-09-20T03:14:19.128Z,87.52
2018-09-20T03:19:13.928Z,86.63
2018-09-20T03:24:08.879Z,87.15
2018-09-20T03:29:03.763Z,88.33
2018-09-20T03:33:58.784Z,87.44
2018-09-20T03:38:53.669Z,87.28
2018-09-20T03:43:48.607Z,87.65
2018-09-20T03:48:43.505Z,87.64
2018-09-20T03:53:39.225Z,89.02
2018-09-20T03:58:34.128Z,88.81
2018-09-20T04:03:28.978Z,89.44
2018-09-20T04:08:23.873Z,90.42
2018-09-20T04:13:18.783Z,93.29
2018-09-20T04:18:13.675Z,91.75
2018-09-20T04:23:08.561Z,91.46
2018-09-20T04:28:03.355Z,90.36
2018-09-20T04:32:58.119Z,89.95
2018-09-20T04:37:52.937Z,89.63
2018-09-20T04:42:47.748Z,89.69
2018-09-20T04:47:42.501Z,90.88
2018-09-20T04:52:37.291Z,90.49
2018-09-20T04:57:32.130Z,90.75
2018-09-20T05:02:26.920Z,90.53
2018-09-20T05:07:21.729Z,90.63
2018-09-20T05:12:18.007Z,89.85
2018-09-20T05:17:12.798Z,89.12
2018-09-20T05:22:07.685Z,89.77
2018-09-20T05:27:02.595Z,89.22
2018-09-20T05:31:57.469Z,89.02
2018-09-20T05:36:52.469Z,89.01
2018-09-20T05:41:47.354Z,89.43
2018-09-20T05:46:42.790Z,90.07
2018-09-20T05:51:37.672Z,90.44
2018-09-20T05:56:33.027Z,91.38
2018-09-20T06:01:29.130Z,90.96
2018-09-20T06:06:24.053Z,91.74
2018-09-20T06:11:18.970Z,92.17
2018-09-20T06:16:13.973Z,91.90
2018-09-20T06:21:08.906Z,92.56
2018-09-20T06:26:03.827Z,93.06
2018-09-20T06:30:58.755Z,93.91
2018-09-20T06:35:53.754Z,94.82
2018-09-20T06:40:48.688Z,94.26
2018-09-20T06:45:44.142Z,95.30
2018-09-20T06:50:39.149Z,92.98
2018-09-20T06:55:34.135Z,93.44
2018-09-20T07:00:29.062Z,93.08
2018-09-20T07:05:23.998Z,92.61
2018-09-20T07:10:18.842Z,91.86
2018-09-20T07:15:13.765Z,90.45
2018-09-20T07:20:08.834Z,90.33
2018-09-20T07:25:03.773Z,88.47
2018-09-20T07:29:58.707Z,89.90
2018-09-20T07:34:53.643Z,87.17
2018-09-20T07:39:48.650Z,85.47
2018-09-20T07:44:43.614Z,83.85
2018-09-20T07:49:38.583Z,82.87
2018-09-20T07:54:33.491Z,82.50
2018-09-20T07:59:28.398Z,79.83
2018-09-20T08:04:26.347Z,79.56
2018-09-20T08:09:21.441Z,78.83
2018-09-20T08:14:16.313Z,77.08
2018-09-20T08:19:11.515Z,74.62
2018-09-20T08:24:06.670Z,75.10
2018-09-20T08:29:01.605Z,74.10
2018-09-20T08:33:56.623Z,69.53
2018-09-20T08:38:51.666Z,69.00
2018-09-20T08:43:46.581Z,68.97
2018-09-20T08:48:41.804Z,68.88
2018-09-20T08:53:36.793Z,65.59
2018-09-20T08:58:33.647Z,64.12
2018-09-20T09:03:28.596Z,61.31
2018-09-20T09:08:23.563Z,63.95
2018-09-20T09:13:18.407Z,64.64
2018-09-20T09:18:13.405Z,65.47
2018-09-20T09:23:08.321Z,64.63
2018-09-20T09:28:03.278Z,63.44
2018-09-20T09:32:58.205Z,64.78
2018-09-20T09:37:53.154Z,64.82
2018-09-20T09:42:48.130Z,65.10
2018-09-20T09:47:43.046Z,64.39
2018-09-20T09:52:38.037Z,64.06
2018-09-20T09:57:33.209Z,65.22
2018-09-20T10:02:28.162Z,64.08
2018-09-20T10:07:23.426Z,63.40
2018-09-20T10:12:18.418Z,65.01
2018-09-20T10:17:13.359Z,64.05
2018-09-20T10:22:08.377Z,65.62
2018-09-20T10:27:03.218Z,64.26
2018-09-20T10:31:58.203Z,64.20
2018-09-20T10:36:53.239Z,64.12
2018-09-20T10:41:48.314Z,64.23
2018-09-20T10:46:43.646Z,64.30
2018-09-20T10:51:38.658Z,62.92
2018-09-20T10:56:33.934Z,62.24
2018-09-20T11:01:28.854Z,64.30
2018-09-20T11:06:23.985Z,62.99
2018-09-20T11:11:19.090Z,62.93
2018-09-20T11:16:14.136Z,64.40
2018-09-20T11:21:09.313Z,65.07
2018-09-20T11:26:04.433Z,65.40
2018-09-20T11:30:59.395Z,65.58
2018-09-20T11:35:54.453Z,63.97
2018-09-20T11:40:49.369Z,63.65
2018-09-20T11:45:44.399Z,65.26
2018-09-20T11:50:39.641Z,66.49
2018-09-20T11:55:34.742Z,64.70
2018-09-20T12:00:29.735Z,63.41
2018-09-20T12:05:24.742Z,62.59
2018-09-20T12:10:20.110Z,64.55
2018-09-20T12:15:15.081Z,63.13
2018-09-20T12:20:10.015Z,64.56
2018-09-20T12:25:05.031Z,62.38
2018-09-20T12:30:00.063Z,65.38
2018-09-20T12:34:55.158Z,63.83
2018-09-20T12:39:50.094Z,60.63
2018-09-20T12:44:45.073Z,60.42
2018-09-20T12:49:40.413Z,61.10
2018-09-20T12:54:35.458Z,61.89
2018-09-20T12:59:30.403Z,62.35
2018-09-20T13:04:25.855Z,61.87
2018-09-20T13:09:20.762Z,58.73
2018-09-20T13:14:15.647Z,58.27
2018-09-20T13:19:10.614Z,58.00
2018-09-20T13:24:05.686Z,59.80
2018-09-20T13:29:00.633Z,59.33
2018-09-20T13:33:55.669Z,58.69
2018-09-20T13:38:50.686Z,58.12
2018-09-20T13:43:46.471Z,55.19
2018-09-20T13:48:41.461Z,57.08
2018-09-20T13:53:36.404Z,55.27
2018-09-20T13:58:31.358Z,54.27
2018-09-20T14:03:26.662Z,54.96
2018-09-20T14:08:21.581Z,55.62
2018-09-20T14:13:16.596Z,55.71
2018-09-20T14:18:11.626Z,55.66
2018-09-20T14:23:06.614Z,53.24
2018-09-20T14:28:01.522Z,54.18
2018-09-20T14:32:56.517Z,53.80
2018-09-20T14:37:51.566Z,53.42
2018-09-20T14:42:46.470Z,55.40
2018-09-20T14:47:41.539Z,55.36
2018-09-20T14:52:36.543Z,52.12
2018-09-20T14:57:31.431Z,50.58
2018-09-20T15:02:26.315Z,51.92
2018-09-20T15:07:21.619Z,50.86
2018-09-20T15:12:16.670Z,49.15
2018-09-20T15:17:11.630Z,47.41
2018-09-20T15:22:06.713Z,46.91
2018-09-20T15:27:01.661Z,46.95
2018-09-20T15:31:56.549Z,47.29
2018-09-20T15:36:51.525Z,47.94
2018-09-20T15:41:46.450Z,45.85
2018-09-20T15:46:41.387Z,46.75
2018-09-20T15:51:36.433Z,45.24
2018-09-20T15:56:31.463Z,46.55
2018-09-20T16:01:26.402Z,47.34
2018-09-20T16:06:21.443Z,44.68
2018-09-20T16:11:16.357Z,46.67
2018-09-20T16:16:11.326Z,46.69
2018-09-20T16:21:06.315Z,47.56
2018-09-20T16:26:01.301Z,46.53
2018-09-20T16:31:16.110Z,47.59
2018-09-20T16:36:25.641Z,48.00
2018-09-20T16:41:27.345Z,49.95
2018-09-20T16:46:22.235Z,54.24
2018-09-20T16:51:17.383Z,56.89
2018-09-20T16:56:16.989Z,59.57
2018-09-20T17:01:11.928Z,61.55
2018-09-20T17:06:06.796Z,64.71
2018-09-20T17:11:01.615Z,65.73
2018-09-20T17:15:56.515Z,66.86
2018-09-20T17:20:51.475Z,66.91
2018-09-20T17:25:46.462Z,68.24
2018-09-20T17:30:41.331Z,68.16
2018-09-20T17:35:36.852Z,68.48
2018-09-20T17:40:34.182Z,68.76
2018-09-20T17:45:29.373Z,68.71
2018-09-20T17:50:24.164Z,68.66
2018-09-20T17:55:19.654Z,68.45
2018-09-20T18:00:14.499Z,67.96
2018-09-20T18:05:09.510Z,68.39
2018-09-20T18:10:04.513Z,67.43
2018-09-20T18:14:59.551Z,66.73
2018-09-20T18:19:54.471Z,67.13
2018-09-20T18:24:49.390Z,67.67
2018-09-20T18:29:44.298Z,68.15
2018-09-20T18:34:39.191Z,68.16
2018-09-20T18:39:34.146Z,69.08
2018-09-20T18:44:29.092Z,69.54
2018-09-20T18:49:24.024Z,69.33
2018-09-20T18:54:18.972Z,69.36
2018-09-20T18:59:13.873Z,70.38
2018-09-20T19:04:08.792Z,69.03
2018-09-20T19:09:03.963Z,68.85
2018-09-20T19:13:58.851Z,69.14
2018-09-20T19:18:53.790Z,69.20
2018-09-20T19:23:48.785Z,69.37
2018-09-20T19:28:43.595Z,69.04
2018-09-20T19:33:38.577Z,69.51
2018-09-20T19:38:33.461Z,70.18
2018-09-20T19:43:28.333Z,69.35
2018-09-20T19:48:23.198Z,70.62
2018-09-20T19:53:18.680Z,69.73
2018-09-20T19:58:13.557Z,70.19
2018-09-20T20:03:08.632Z,69.79
2018-09-20T20:08:03.610Z,70.79
2018-09-20T20:12:58.704Z,70.30
2018-09-20T20:17:53.622Z,69.22
2018-09-20T20:22:48.568Z,72.33
2018-09-20T20:27:44.057Z,71.33
2018-09-20T20:32:40.132Z,71.73
2018-09-20T20:37:35.012Z,72.20
2018-09-20T20:42:29.941Z,71.62
2018-09-20T20:47:24.830Z,73.18
2018-09-20T20:52:19.826Z,74.27
2018-09-20T20:57:14.796Z,72.42
2018-09-20T21:02:09.778Z,72.72
2018-09-20T21:07:04.697Z,71.75
2018-09-20T21:11:59.635Z,72.57
2018-09-20T21:16:54.914Z,72.37
2018-09-20T21:21:49.827Z,74.82
2018-09-20T21:27:17.750Z,73.46
2018-09-20T21:32:12.662Z,73.12
2018-09-20T21:37:07.677Z,72.39
2018-09-20T21:42:02.546Z,75.84
2018-09-20T21:46:57.444Z,74.29
2018-09-20T21:51:52.344Z,73.27
2018-09-20T21:56:47.318Z,74.75
2018-09-20T22:01:48.001Z,75.20
2018-09-20T22:06:42.959Z,76.05
2018-09-20T22:11:38.474Z,73.60
2018-09-20T22:16:33.398Z,74.22
2018-09-20T22:21:28.405Z,74.95
2018-09-20T22:26:23.412Z,75.42
2018-09-20T22:31:18.729Z,75.67
2018-09-20T22:36:13.656Z,75.21
2018-09-20T22:41:08.628Z,76.54
2018-09-20T22:46:03.639Z,78.22
2018-09-20T22:51:01.757Z,77.50
2018-09-20T22:55:56.695Z,76.70
2018-09-20T23:00:51.717Z,76.95
2018-09-20T23:05:47.581Z,77.49
2018-09-20T23:10:42.516Z,76.54
2018-09-20T23:15:38.341Z,77.23
2018-09-20T23:20:37.547Z,78.85
2018-09-20T23:25:32.486Z,78.52
2018-09-20T23:30:27.374Z,78.84
2018-09-20T23:35:24.452Z,79.37
2018-09-20T23:40:19.384Z,78.75
2018-09-20T23:45:16.109Z,78.29
2018-09-20T23:50:11.471Z,77.93
2018-09-20T23:55:07.563Z,78.85
